createdAt,value
2022-12-18T00:00:28.200Z,1026.66
2022-12-18T00:01:28.122Z,1026.63
2022-12-18T00:02:28.114Z,1026.65
2022-12-18T00:03:28.236Z,1026.63
2022-12-18T00:04:28.118Z,1026.68
2022-12-18T00:05:28.061Z,1026.62
2022-12-18T00:06:28.022Z,1026.65
2022-12-18T00:07:28.040Z,1026.67
2022-12-18T00:08:27.968Z,1026.65
2022-12-18T00:09:31.598Z,1026.70
2022-12-18T00:10:28.971Z,1026.72
2022-12-18T00:11:27.989Z,1026.72
2022-12-18T00:12:30.043Z,1026.65
2022-12-18T00:13:27.950Z,1026.65
2022-12-18T00:14:27.921Z,1026.63
2022-12-18T00:15:27.931Z,1026.58
2022-12-18T00:16:28.144Z,1026.62
2022-12-18T00:17:27.919Z,1026.58
2022-12-18T00:18:27.885Z,1026.51
2022-12-18T00:19:27.893Z,1026.56
2022-12-18T00:20:27.830Z,1026.54
2022-12-18T00:21:27.836Z,1026.59
2022-12-18T00:22:27.822Z,1026.60
2022-12-18T00:23:27.815Z,1026.57
2022-12-18T00:24:27.833Z,1026.61
2022-12-18T00:25:28.540Z,1026.57
2022-12-18T00:26:27.750Z,1026.60
2022-12-18T00:27:27.765Z,1026.61
2022-12-18T00:28:27.753Z,1026.61
2022-12-18T00:29:27.775Z,1026.58
2022-12-18T00:30:27.727Z,1026.58
2022-12-18T00:31:27.781Z,1026.58
2022-12-18T00:32:27.679Z,1026.59
2022-12-18T00:33:27.688Z,1026.54
2022-12-18T00:34:27.681Z,1026.60
2022-12-18T00:35:27.691Z,1026.57
2022-12-18T00:36:27.685Z,1026.55
2022-12-18T00:37:27.673Z,1026.59
2022-12-18T00:38:27.620Z,1026.58
2022-12-18T00:39:27.665Z,1026.59
2022-12-18T00:40:27.578Z,1026.66
2022-12-18T00:41:27.604Z,1026.60
2022-12-18T00:42:27.696Z,1026.65
2022-12-18T00:43:27.577Z,1026.62
2022-12-18T00:44:27.567Z,1026.62
2022-12-18T00:45:27.584Z,1026.61
2022-12-18T00:46:27.565Z,1026.62
2022-12-18T00:47:27.494Z,1026.61
2022-12-18T00:48:27.653Z,1026.58
2022-12-18T00:49:27.495Z,1026.59
2022-12-18T00:50:27.488Z,1026.53
2022-12-18T00:51:27.483Z,1026.54
2022-12-18T00:52:27.467Z,1026.54
2022-12-18T00:53:27.419Z,1026.56
2022-12-18T00:54:27.486Z,1026.53
2022-12-18T00:55:27.397Z,1026.55
2022-12-18T00:56:27.437Z,1026.61
2022-12-18T00:57:27.397Z,1026.59
2022-12-18T00:58:27.389Z,1026.55
2022-12-18T00:59:27.340Z,1026.55
2022-12-18T01:00:27.428Z,1026.55
2022-12-18T01:01:27.390Z,1026.57
2022-12-18T01:02:27.472Z,1026.56
2022-12-18T01:03:27.327Z,1026.52
2022-12-18T01:04:27.311Z,1026.55
2022-12-18T01:05:27.272Z,1026.51
2022-12-18T01:06:27.435Z,1026.48
2022-12-18T01:07:27.252Z,1026.50
2022-12-18T01:08:27.291Z,1026.46
2022-12-18T01:09:27.248Z,1026.48
2022-12-18T01:10:27.243Z,1026.43
2022-12-18T01:11:27.228Z,1026.55
2022-12-18T01:12:27.252Z,1026.51
2022-12-18T01:13:28.130Z,1026.57
2022-12-18T01:14:27.218Z,1026.57
2022-12-18T01:15:27.177Z,1026.54
2022-12-18T01:16:27.195Z,1026.54
2022-12-18T01:17:27.122Z,1026.56
2022-12-18T01:18:27.198Z,1026.51
2022-12-18T01:19:27.103Z,1026.52
2022-12-18T01:20:27.147Z,1026.57
2022-12-18T01:21:27.110Z,1026.56
2022-12-18T01:22:27.093Z,1026.57
2022-12-18T01:23:27.090Z,1026.59
2022-12-18T01:24:27.184Z,1026.59
2022-12-18T01:25:27.023Z,1026.65
2022-12-18T01:26:27.072Z,1026.67
2022-12-18T01:27:27.002Z,1026.66
2022-12-18T01:28:27.041Z,1026.73
2022-12-18T01:29:27.008Z,1026.72
2022-12-18T01:30:27.015Z,1026.72
2022-12-18T01:31:27.046Z,1026.73
2022-12-18T01:32:26.999Z,1026.76
2022-12-18T01:33:26.960Z,1026.74
2022-12-18T01:34:26.944Z,1026.83
2022-12-18T01:35:26.933Z,1026.80
2022-12-18T01:36:26.946Z,1026.84
2022-12-18T01:37:26.885Z,1026.83
2022-12-18T01:38:26.921Z,1026.82
2022-12-18T01:39:26.855Z,1026.80
2022-12-18T01:40:26.900Z,1026.76
2022-12-18T01:41:26.860Z,1026.77
2022-12-18T01:42:26.887Z,1026.74
2022-12-18T01:43:26.835Z,1026.64
2022-12-18T01:44:26.825Z,1026.71
2022-12-18T01:45:26.825Z,1026.70
2022-12-18T01:46:26.822Z,1026.66
2022-12-18T01:47:26.757Z,1026.69
2022-12-18T01:48:26.840Z,1026.72
2022-12-18T01:49:26.762Z,1026.71
2022-12-18T01:50:26.746Z,1026.71
2022-12-18T01:51:26.732Z,1026.75
2022-12-18T01:52:26.726Z,1026.76
2022-12-18T01:53:26.677Z,1026.81
2022-12-18T01:54:26.761Z,1026.81
2022-12-18T01:55:26.658Z,1026.76
2022-12-18T01:56:26.705Z,1026.75
2022-12-18T01:57:26.662Z,1026.76
2022-12-18T01:58:26.647Z,1026.70
2022-12-18T01:59:26.633Z,1026.67
2022-12-18T02:00:26.649Z,1026.74
2022-12-18T02:01:26.731Z,1026.72
2022-12-18T02:02:26.794Z,1026.71
2022-12-18T02:03:26.620Z,1026.76
2022-12-18T02:04:26.579Z,1026.82
2022-12-18T02:05:26.539Z,1026.80
2022-12-18T02:06:26.604Z,1026.80
2022-12-18T02:07:26.508Z,1026.78
2022-12-18T02:08:26.553Z,1026.79
2022-12-18T02:09:26.516Z,1026.78
2022-12-18T02:10:26.498Z,1026.83
2022-12-18T02:11:26.485Z,1026.85
2022-12-18T02:12:26.589Z,1026.77
2022-12-18T02:13:26.438Z,1026.78
2022-12-18T02:14:26.478Z,1026.84
2022-12-18T02:15:26.409Z,1026.90
2022-12-18T02:16:26.475Z,1026.90
2022-12-18T02:17:26.415Z,1026.89
2022-12-18T02:18:26.444Z,1026.90
2022-12-18T02:19:26.360Z,1026.90
2022-12-18T02:20:26.406Z,1026.88
2022-12-18T02:21:26.366Z,1026.88
2022-12-18T02:22:26.360Z,1026.91
2022-12-18T02:23:26.341Z,1026.95
2022-12-18T02:24:26.445Z,1026.95
2022-12-18T02:25:26.290Z,1026.93
2022-12-18T02:26:26.328Z,1026.90
2022-12-18T02:27:26.261Z,1026.91
2022-12-18T02:28:26.313Z,1026.90
2022-12-18T02:29:26.268Z,1026.91
2022-12-18T02:30:26.394Z,1026.87
2022-12-18T02:31:26.245Z,1026.89
2022-12-18T02:32:26.231Z,1026.85
2022-12-18T02:33:26.191Z,1026.82
2022-12-18T02:34:26.237Z,1026.75
2022-12-18T02:35:26.202Z,1026.72
2022-12-18T02:36:26.222Z,1026.71
2022-12-18T02:37:26.142Z,1026.69
2022-12-18T02:38:26.189Z,1026.63
2022-12-18T02:39:26.112Z,1026.68
2022-12-18T02:40:26.159Z,1026.59
2022-12-18T02:41:26.119Z,1026.59
2022-12-18T02:42:26.222Z,1026.59
2022-12-18T02:43:26.098Z,1026.57
2022-12-18T02:44:26.083Z,1026.60
2022-12-18T02:45:26.042Z,1026.58
2022-12-18T02:46:26.087Z,1026.63
2022-12-18T02:47:26.014Z,1026.60
2022-12-18T02:48:26.088Z,1026.61
2022-12-18T02:49:26.021Z,1026.61
2022-12-18T02:50:26.012Z,1026.62
2022-12-18T02:51:25.998Z,1026.62
2022-12-18T02:52:25.985Z,1026.63
2022-12-18T02:53:25.953Z,1026.62
2022-12-18T02:54:26.099Z,1026.62
2022-12-18T02:55:25.924Z,1026.58
2022-12-18T02:56:25.960Z,1026.56
2022-12-18T02:57:25.920Z,1026.59
2022-12-18T02:58:25.911Z,1026.60
2022-12-18T02:59:25.900Z,1026.65
2022-12-18T03:00:25.913Z,1026.73
2022-12-18T03:01:25.921Z,1026.67
2022-12-18T03:02:26.017Z,1026.72
2022-12-18T03:03:25.893Z,1026.72
2022-12-18T03:04:25.862Z,1026.72
2022-12-18T03:05:25.821Z,1026.70
2022-12-18T03:06:25.917Z,1026.74
2022-12-18T03:07:25.779Z,1026.76
2022-12-18T03:08:25.818Z,1026.82
2022-12-18T03:09:25.772Z,1026.81
2022-12-18T03:10:25.766Z,1026.83
2022-12-18T03:11:25.751Z,1026.79
2022-12-18T03:12:25.775Z,1026.80
2022-12-18T03:13:25.695Z,1026.83
2022-12-18T03:14:25.743Z,1026.79
2022-12-18T03:15:25.676Z,1026.84
2022-12-18T03:16:25.757Z,1026.81
2022-12-18T03:17:25.674Z,1026.77
2022-12-18T03:18:25.778Z,1026.75
2022-12-18T03:19:25.654Z,1026.71
2022-12-18T03:20:25.636Z,1026.75
2022-12-18T03:21:25.609Z,1026.68
2022-12-18T03:22:25.644Z,1026.73
2022-12-18T03:23:26.429Z,1026.73
2022-12-18T03:24:25.628Z,1026.75
2022-12-18T03:25:25.557Z,1026.78
2022-12-18T03:26:25.602Z,1026.80
2022-12-18T03:27:25.528Z,1026.77
2022-12-18T03:28:25.578Z,1026.74
2022-12-18T03:29:25.536Z,1026.70
2022-12-18T03:30:25.548Z,1026.65
2022-12-18T03:31:25.604Z,1026.67
2022-12-18T03:32:25.498Z,1026.73
2022-12-18T03:33:25.460Z,1026.71
2022-12-18T03:34:25.495Z,1026.76
2022-12-18T03:35:25.428Z,1026.73
2022-12-18T03:36:25.586Z,1026.78
2022-12-18T03:37:25.434Z,1026.77
2022-12-18T03:38:25.419Z,1026.77
2022-12-18T03:39:25.382Z,1026.75
2022-12-18T03:40:25.425Z,1026.74
2022-12-18T03:41:25.388Z,1026.73
2022-12-18T03:42:25.403Z,1026.74
2022-12-18T03:43:25.366Z,1026.72
2022-12-18T03:44:25.349Z,1026.71
2022-12-18T03:45:25.311Z,1026.62
2022-12-18T03:46:25.389Z,1026.66
2022-12-18T03:47:25.281Z,1026.63
2022-12-18T03:48:25.365Z,1026.68
2022-12-18T03:49:25.286Z,1026.62
2022-12-18T03:50:25.272Z,1026.63
2022-12-18T03:51:25.265Z,1026.69
2022-12-18T03:52:25.251Z,1026.71
2022-12-18T03:53:25.219Z,1026.67
2022-12-18T03:54:25.368Z,1026.67
2022-12-18T03:55:25.183Z,1026.69
2022-12-18T03:56:25.228Z,1026.70
2022-12-18T03:57:25.187Z,1026.66
2022-12-18T03:58:25.180Z,1026.71
2022-12-18T03:59:25.165Z,1026.70
2022-12-18T04:00:25.192Z,1026.67
2022-12-18T04:01:25.196Z,1026.69
2022-12-18T04:02:25.326Z,1026.65
2022-12-18T04:03:26.636Z,1026.66
2022-12-18T04:04:25.129Z,1026.61
2022-12-18T04:05:25.088Z,1026.59
2022-12-18T04:06:25.183Z,1026.61
2022-12-18T04:07:25.059Z,1026.62
2022-12-18T04:08:25.052Z,1026.63
2022-12-18T04:09:25.013Z,1026.67
2022-12-18T04:10:25.058Z,1026.69
2022-12-18T04:11:25.019Z,1026.61
2022-12-18T04:12:25.046Z,1026.66
2022-12-18T04:13:24.963Z,1026.66
2022-12-18T04:14:25.009Z,1026.61
2022-12-18T04:15:24.972Z,1026.63
2022-12-18T04:16:24.980Z,1026.63
2022-12-18T04:17:24.964Z,1026.64
2022-12-18T04:18:24.964Z,1026.62
2022-12-18T04:19:24.923Z,1026.62
2022-12-18T04:20:24.904Z,1026.60
2022-12-18T04:21:24.864Z,1026.66
2022-12-18T04:22:24.909Z,1026.64
2022-12-18T04:23:24.846Z,1026.65
2022-12-18T04:24:24.911Z,1026.69
2022-12-18T04:25:24.842Z,1026.76
2022-12-18T04:26:24.835Z,1026.75
2022-12-18T04:27:25.504Z,1026.69
2022-12-18T04:28:24.831Z,1026.69
2022-12-18T04:29:24.791Z,1026.71
2022-12-18T04:30:24.895Z,1026.67
2022-12-18T04:31:24.785Z,1026.71
2022-12-18T04:32:24.755Z,1026.73
2022-12-18T04:33:24.716Z,1026.74
2022-12-18T04:34:24.761Z,1026.77
2022-12-18T04:35:24.696Z,1026.72
2022-12-18T04:36:24.772Z,1026.69
2022-12-18T04:37:24.695Z,1026.67
2022-12-18T04:38:24.688Z,1026.66
2022-12-18T04:39:24.674Z,1026.61
2022-12-18T04:40:24.656Z,1026.62
2022-12-18T04:41:24.617Z,1026.63
2022-12-18T04:42:24.696Z,1026.59
2022-12-18T04:43:24.695Z,1026.60
2022-12-18T04:44:24.609Z,1026.57
2022-12-18T04:45:25.264Z,1026.57
2022-12-18T04:46:24.664Z,1026.59
2022-12-18T04:47:24.547Z,1026.66
2022-12-18T04:48:24.695Z,1026.62
2022-12-18T04:49:24.544Z,1026.63
2022-12-18T04:50:24.539Z,1026.66
2022-12-18T04:51:26.584Z,1026.62
2022-12-18T04:52:24.511Z,1026.57
2022-12-18T04:53:24.470Z,1026.57
2022-12-18T04:54:24.555Z,1026.53
2022-12-18T04:55:24.448Z,1026.54
2022-12-18T04:56:25.167Z,1026.57
2022-12-18T04:57:24.446Z,1026.61
2022-12-18T04:58:24.439Z,1026.59
2022-12-18T04:59:24.435Z,1026.68
2022-12-18T05:00:24.446Z,1026.65
2022-12-18T05:01:28.158Z,1026.70
2022-12-18T05:02:25.516Z,1026.66
2022-12-18T05:03:24.509Z,1026.65
2022-12-18T05:04:24.339Z,1026.67
2022-12-18T05:05:24.351Z,1026.65
2022-12-18T05:06:24.376Z,1026.61
2022-12-18T05:07:24.332Z,1026.65
2022-12-18T05:08:24.315Z,1026.65
2022-12-18T05:09:24.328Z,1026.64
2022-12-18T05:10:24.260Z,1026.72
2022-12-18T05:11:24.310Z,1026.70
2022-12-18T05:12:24.261Z,1026.73
2022-12-18T05:13:24.251Z,1026.76
2022-12-18T05:14:24.239Z,1026.78
2022-12-18T05:15:24.258Z,1026.84
2022-12-18T05:16:24.238Z,1026.86
2022-12-18T05:17:24.201Z,1026.89
2022-12-18T05:18:24.226Z,1026.89
2022-12-18T05:19:24.354Z,1026.87
2022-12-18T05:20:24.324Z,1026.86
2022-12-18T05:21:25.042Z,1026.88
2022-12-18T05:22:24.339Z,1026.83
2022-12-18T05:23:24.235Z,1026.84
2022-12-18T05:24:24.262Z,1026.81
2022-12-18T05:25:24.164Z,1026.72
2022-12-18T05:26:24.105Z,1026.79
2022-12-18T05:27:24.115Z,1026.77
2022-12-18T05:28:24.085Z,1026.74
2022-12-18T05:29:24.092Z,1026.78
2022-12-18T05:30:24.134Z,1026.79
2022-12-18T05:31:24.069Z,1026.78
2022-12-18T05:32:24.041Z,1026.73
2022-12-18T05:33:24.041Z,1026.73
2022-12-18T05:34:24.009Z,1026.75
2022-12-18T05:35:24.729Z,1026.74
2022-12-18T05:36:23.996Z,1026.68
2022-12-18T05:37:23.986Z,1026.73
2022-12-18T05:38:23.953Z,1026.72
2022-12-18T05:39:23.937Z,1026.77
2022-12-18T05:40:23.942Z,1026.77
2022-12-18T05:41:23.943Z,1026.78
2022-12-18T05:42:23.997Z,1026.81
2022-12-18T05:43:23.924Z,1026.80
2022-12-18T05:44:23.857Z,1026.82
2022-12-18T05:45:23.882Z,1026.81
2022-12-18T05:46:23.940Z,1026.78
2022-12-18T05:47:23.883Z,1026.83
2022-12-18T05:48:23.916Z,1026.82
2022-12-18T05:49:23.835Z,1026.82
2022-12-18T05:50:23.805Z,1026.82
2022-12-18T05:51:23.810Z,1026.88
2022-12-18T05:52:23.795Z,1026.79
2022-12-18T05:53:23.813Z,1026.79
2022-12-18T05:54:23.854Z,1026.86
2022-12-18T05:55:23.785Z,1026.80
2022-12-18T05:56:23.709Z,1026.80
2022-12-18T05:57:23.727Z,1026.77
2022-12-18T05:58:23.715Z,1026.87
2022-12-18T05:59:23.721Z,1026.89
2022-12-18T06:00:23.735Z,1026.89
2022-12-18T06:01:23.742Z,1026.83
2022-12-18T06:02:23.738Z,1026.92
2022-12-18T06:03:25.138Z,1027.00
2022-12-18T06:04:23.630Z,1026.92
2022-12-18T06:05:23.625Z,1026.99
2022-12-18T06:06:23.725Z,1026.97
2022-12-18T06:07:23.600Z,1026.97
2022-12-18T06:08:23.588Z,1027.04
2022-12-18T06:09:23.613Z,1027.08
2022-12-18T06:10:23.530Z,1027.08
2022-12-18T06:11:23.576Z,1027.03
2022-12-18T06:12:23.540Z,1027.05
2022-12-18T06:13:23.522Z,1026.96
2022-12-18T06:14:23.526Z,1026.98
2022-12-18T06:15:23.512Z,1026.93
2022-12-18T06:16:23.527Z,1027.00
2022-12-18T06:17:23.508Z,1026.94
2022-12-18T06:18:23.462Z,1026.93
2022-12-18T06:19:23.452Z,1026.95
2022-12-18T06:20:23.437Z,1026.97
2022-12-18T06:21:23.468Z,1026.96
2022-12-18T06:22:23.382Z,1026.92
2022-12-18T06:23:23.460Z,1026.91
2022-12-18T06:24:23.493Z,1026.91
2022-12-18T06:25:23.401Z,1026.89
2022-12-18T06:26:27.755Z,1026.89
2022-12-18T06:27:24.352Z,1026.87
2022-12-18T06:28:23.349Z,1026.82
2022-12-18T06:29:23.358Z,1026.83
2022-12-18T06:30:23.632Z,1026.85
2022-12-18T06:31:23.452Z,1026.92
2022-12-18T06:32:23.272Z,1026.99
2022-12-18T06:33:23.303Z,1027.03
2022-12-18T06:34:23.260Z,1027.05
2022-12-18T06:35:23.310Z,1027.08
2022-12-18T06:36:23.290Z,1027.06
2022-12-18T06:37:23.224Z,1027.06
2022-12-18T06:38:23.210Z,1027.11
2022-12-18T06:39:23.555Z,1027.11
2022-12-18T06:40:23.210Z,1027.16
2022-12-18T06:41:23.212Z,1027.22
2022-12-18T06:42:23.185Z,1027.18
2022-12-18T06:43:23.184Z,1027.17
2022-12-18T06:44:23.115Z,1027.26
2022-12-18T06:45:23.134Z,1027.19
2022-12-18T06:46:23.130Z,1027.20
2022-12-18T06:47:23.126Z,1027.17
2022-12-18T06:48:23.131Z,1027.22
2022-12-18T06:49:27.338Z,1027.16
2022-12-18T06:50:24.055Z,1027.16
2022-12-18T06:51:23.054Z,1027.23
2022-12-18T06:52:23.045Z,1027.23
2022-12-18T06:53:23.071Z,1027.14
2022-12-18T06:54:23.295Z,1027.23
2022-12-18T06:55:23.032Z,1027.30
2022-12-18T06:56:22.988Z,1027.31
2022-12-18T06:57:22.986Z,1027.31
2022-12-18T06:58:22.972Z,1027.33
2022-12-18T06:59:22.956Z,1027.34
2022-12-18T07:00:23.052Z,1027.35
2022-12-18T07:01:23.077Z,1027.30
2022-12-18T07:02:23.020Z,1027.29
2022-12-18T07:03:22.934Z,1027.21
2022-12-18T07:04:22.868Z,1027.17
2022-12-18T07:05:22.883Z,1027.25
2022-12-18T07:06:22.984Z,1027.21
2022-12-18T07:07:22.857Z,1027.24
2022-12-18T07:08:22.844Z,1027.28
2022-12-18T07:09:22.863Z,1027.27
2022-12-18T07:10:22.787Z,1027.30
2022-12-18T07:11:22.842Z,1027.32
2022-12-18T07:12:22.788Z,1027.32
2022-12-18T07:13:22.777Z,1027.35
2022-12-18T07:14:22.766Z,1027.31
2022-12-18T07:15:22.758Z,1027.32
2022-12-18T07:16:25.643Z,1027.30
2022-12-18T07:17:22.755Z,1027.32
2022-12-18T07:18:22.727Z,1027.29
2022-12-18T07:19:22.885Z,1027.27
2022-12-18T07:20:23.539Z,1027.22
2022-12-18T07:21:22.680Z,1027.26
2022-12-18T07:22:22.668Z,1027.24
2022-12-18T07:23:22.684Z,1027.28
2022-12-18T07:24:22.651Z,1027.19
2022-12-18T07:25:22.637Z,1027.23
2022-12-18T07:26:22.618Z,1027.17
2022-12-18T07:27:22.609Z,1027.13
2022-12-18T07:28:22.595Z,1027.08
2022-12-18T07:29:22.606Z,1027.13
2022-12-18T07:30:22.561Z,1027.09
2022-12-18T07:31:22.656Z,1027.08
2022-12-18T07:32:22.527Z,1027.13
2022-12-18T07:33:22.539Z,1027.09
2022-12-18T07:34:22.525Z,1027.16
2022-12-18T07:35:25.160Z,1027.15
2022-12-18T07:36:22.616Z,1027.21
2022-12-18T07:37:22.519Z,1027.25
2022-12-18T07:38:22.451Z,1027.24
2022-12-18T07:39:22.463Z,1027.25
2022-12-18T07:40:22.449Z,1027.25
2022-12-18T07:41:22.466Z,1027.29
2022-12-18T07:42:22.433Z,1027.34
2022-12-18T07:43:22.439Z,1027.27
2022-12-18T07:44:22.376Z,1027.30
2022-12-18T07:45:22.396Z,1027.34
2022-12-18T07:46:22.446Z,1027.30
2022-12-18T07:47:22.362Z,1027.32
2022-12-18T07:48:22.371Z,1027.36
2022-12-18T07:49:22.368Z,1027.34
2022-12-18T07:50:22.293Z,1027.41
2022-12-18T07:51:22.340Z,1027.44
2022-12-18T07:52:25.994Z,1027.41
2022-12-18T07:53:22.295Z,1027.42
2022-12-18T07:54:22.389Z,1027.42
2022-12-18T07:55:22.289Z,1027.36
2022-12-18T07:56:30.935Z,1027.37
2022-12-18T07:57:48.929Z,1027.34
2022-12-18T07:58:23.229Z,1027.36
2022-12-18T07:59:22.216Z,1027.37
2022-12-18T08:00:22.241Z,1027.38
2022-12-18T08:01:22.321Z,1027.41
2022-12-18T08:02:22.258Z,1027.42
2022-12-18T08:03:22.230Z,1027.43
2022-12-18T08:04:22.125Z,1027.52
2022-12-18T08:05:22.149Z,1027.51
2022-12-18T08:06:23.400Z,1027.44
2022-12-18T08:07:22.122Z,1027.44
2022-12-18T08:08:22.110Z,1027.46
2022-12-18T08:09:22.120Z,1027.44
2022-12-18T08:10:22.055Z,1027.46
2022-12-18T08:11:22.100Z,1027.43
2022-12-18T08:12:22.136Z,1027.39
2022-12-18T08:13:22.046Z,1027.33
2022-12-18T08:14:22.031Z,1027.30
2022-12-18T08:15:22.016Z,1027.25
2022-12-18T08:16:22.128Z,1027.22
2022-12-18T08:17:22.026Z,1027.17
2022-12-18T08:18:22.066Z,1027.18
2022-12-18T08:19:21.993Z,1027.12
2022-12-18T08:20:21.934Z,1027.14
2022-12-18T08:21:22.102Z,1027.10
2022-12-18T08:22:21.933Z,1027.03
2022-12-18T08:23:21.917Z,1027.05
2022-12-18T08:24:22.014Z,1027.02
2022-12-18T08:25:21.924Z,1027.01
2022-12-18T08:26:22.567Z,1026.97
2022-12-18T08:27:29.442Z,1026.91
2022-12-18T08:28:22.862Z,1026.86
2022-12-18T08:29:21.874Z,1026.81
2022-12-18T08:30:21.918Z,1026.85
2022-12-18T08:31:21.896Z,1026.85
2022-12-18T08:32:21.803Z,1026.83
2022-12-18T08:33:22.756Z,1026.86
2022-12-18T08:34:21.783Z,1026.82
2022-12-18T08:35:21.771Z,1026.78
2022-12-18T08:36:21.874Z,1026.77
2022-12-18T08:37:21.785Z,1026.73
2022-12-18T08:38:21.709Z,1026.71
2022-12-18T08:39:21.745Z,1026.70
2022-12-18T08:40:21.680Z,1026.69
2022-12-18T08:41:21.700Z,1026.66
2022-12-18T08:42:21.804Z,1026.62
2022-12-18T08:43:21.703Z,1026.61
2022-12-18T08:44:21.636Z,1026.59
2022-12-18T08:45:21.650Z,1026.63
2022-12-18T08:46:21.698Z,1026.66
2022-12-18T08:47:21.628Z,1026.65
2022-12-18T08:48:22.386Z,1026.64
2022-12-18T08:49:21.628Z,1026.63
2022-12-18T08:50:21.560Z,1026.64
2022-12-18T08:51:21.600Z,1026.63
2022-12-18T08:52:21.538Z,1026.64
2022-12-18T08:53:21.550Z,1026.60
2022-12-18T08:54:21.567Z,1026.63
2022-12-18T08:55:21.520Z,1026.63
2022-12-18T08:56:21.508Z,1026.57
2022-12-18T08:57:21.527Z,1026.56
2022-12-18T08:58:21.460Z,1026.52
2022-12-18T08:59:21.472Z,1026.49
2022-12-18T09:00:21.577Z,1026.40
2022-12-18T09:01:21.525Z,1026.48
2022-12-18T09:02:21.663Z,1026.46
2022-12-18T09:03:21.474Z,1026.40
2022-12-18T09:04:21.382Z,1026.41
2022-12-18T09:05:21.401Z,1026.35
2022-12-18T09:06:21.430Z,1026.34
2022-12-18T09:07:21.372Z,1026.37
2022-12-18T09:08:21.359Z,1026.37
2022-12-18T09:09:21.377Z,1026.46
2022-12-18T09:10:21.302Z,1026.44
2022-12-18T09:11:21.349Z,1026.39
2022-12-18T09:12:21.318Z,1026.39
2022-12-18T09:13:21.304Z,1026.41
2022-12-18T09:14:21.280Z,1026.41
2022-12-18T09:15:21.269Z,1026.45
2022-12-18T09:16:21.299Z,1026.40
2022-12-18T09:17:21.383Z,1026.48
2022-12-18T09:18:21.290Z,1026.55
2022-12-18T09:19:21.223Z,1026.53
2022-12-18T09:20:21.261Z,1026.55
2022-12-18T09:21:21.191Z,1026.57
2022-12-18T09:22:22.152Z,1026.54
2022-12-18T09:23:21.178Z,1026.56
2022-12-18T09:24:21.184Z,1026.56
2022-12-18T09:25:21.114Z,1026.54
2022-12-18T09:26:21.161Z,1026.57
2022-12-18T09:27:21.085Z,1026.58
2022-12-18T09:28:21.132Z,1026.62
2022-12-18T09:29:21.112Z,1026.64
2022-12-18T09:30:21.108Z,1026.67
2022-12-18T09:31:21.062Z,1026.66
2022-12-18T09:32:22.657Z,1026.59
2022-12-18T09:33:21.064Z,1026.61
2022-12-18T09:34:21.026Z,1026.59
2022-12-18T09:35:21.012Z,1026.57
2022-12-18T09:36:21.051Z,1026.57
2022-12-18T09:37:20.966Z,1026.60
2022-12-18T09:38:21.013Z,1026.57
2022-12-18T09:39:22.901Z,1026.59
2022-12-18T09:40:20.984Z,1026.64
2022-12-18T09:41:20.944Z,1026.66
2022-12-18T09:42:21.046Z,1026.68
2022-12-18T09:43:20.935Z,1026.67
2022-12-18T09:44:20.936Z,1026.65
2022-12-18T09:45:20.858Z,1026.67
2022-12-18T09:46:20.936Z,1026.67
2022-12-18T09:47:20.866Z,1026.65
2022-12-18T09:48:20.887Z,1026.67
2022-12-18T09:49:20.809Z,1026.68
2022-12-18T09:50:20.854Z,1026.70
2022-12-18T09:51:20.787Z,1026.67
2022-12-18T09:52:20.826Z,1026.65
2022-12-18T09:53:20.787Z,1026.66
2022-12-18T09:54:20.879Z,1026.64
2022-12-18T09:55:20.764Z,1026.64
2022-12-18T09:56:20.749Z,1026.64
2022-12-18T09:57:20.709Z,1026.59
2022-12-18T09:58:20.754Z,1026.61
2022-12-18T09:59:20.679Z,1026.58
2022-12-18T10:00:20.763Z,1026.49
2022-12-18T10:01:20.761Z,1026.51
2022-12-18T10:02:20.752Z,1026.51
2022-12-18T10:03:21.340Z,1026.49
2022-12-18T10:04:20.764Z,1026.51
2022-12-18T10:05:20.627Z,1026.54
2022-12-18T10:06:20.650Z,1026.59
2022-12-18T10:07:20.606Z,1026.62
2022-12-18T10:08:20.602Z,1026.59
2022-12-18T10:09:20.581Z,1026.63
2022-12-18T10:10:20.665Z,1026.56
2022-12-18T10:11:20.552Z,1026.61
2022-12-18T10:12:20.688Z,1026.63
2022-12-18T10:13:20.529Z,1026.62
2022-12-18T10:14:24.613Z,1026.60
2022-12-18T10:15:20.509Z,1026.59
2022-12-18T10:16:20.581Z,1026.59
2022-12-18T10:17:20.454Z,1026.51
2022-12-18T10:18:22.183Z,1026.54
2022-12-18T10:19:20.424Z,1026.56
2022-12-18T10:20:20.561Z,1026.52
2022-12-18T10:21:20.430Z,1026.46
2022-12-18T10:22:20.414Z,1026.48
2022-12-18T10:23:20.400Z,1026.46
2022-12-18T10:24:20.444Z,1026.41
2022-12-18T10:25:20.353Z,1026.37
2022-12-18T10:26:20.391Z,1026.34
2022-12-18T10:27:20.325Z,1026.30
2022-12-18T10:28:20.370Z,1026.20
2022-12-18T10:29:20.321Z,1026.22
2022-12-18T10:30:20.470Z,1026.20
2022-12-18T10:31:20.326Z,1026.15
2022-12-18T10:32:20.304Z,1026.15
2022-12-18T10:33:20.254Z,1026.05
2022-12-18T10:34:20.281Z,1026.02
2022-12-18T10:35:20.250Z,1026.00
2022-12-18T10:36:20.284Z,1025.95
2022-12-18T10:37:20.216Z,1025.92
2022-12-18T10:38:20.234Z,1025.90
2022-12-18T10:39:20.165Z,1025.84
2022-12-18T10:40:22.767Z,1025.79
2022-12-18T10:41:21.677Z,1025.80
2022-12-18T10:42:20.186Z,1025.73
2022-12-18T10:43:20.146Z,1025.77
2022-12-18T10:44:20.130Z,1025.75
2022-12-18T10:45:20.086Z,1025.70
2022-12-18T10:46:20.188Z,1025.68
2022-12-18T10:47:20.067Z,1025.65
2022-12-18T10:48:20.143Z,1025.69
2022-12-18T10:49:20.063Z,1025.71
2022-12-18T10:50:20.068Z,1025.69
2022-12-18T10:51:20.008Z,1025.72
2022-12-18T10:52:20.052Z,1025.67
2022-12-18T10:53:20.013Z,1025.68
2022-12-18T10:54:20.027Z,1025.75
2022-12-18T10:55:19.996Z,1025.69
2022-12-18T10:56:19.967Z,1025.69
2022-12-18T10:57:19.976Z,1025.72
2022-12-18T10:58:24.971Z,1025.72
2022-12-18T10:59:20.948Z,1025.73
2022-12-18T11:00:19.945Z,1025.74
2022-12-18T11:01:19.985Z,1025.75
2022-12-18T11:02:19.981Z,1025.74
2022-12-18T11:03:19.928Z,1025.71
2022-12-18T11:04:19.871Z,1025.72
2022-12-18T11:05:19.889Z,1025.69
2022-12-18T11:06:19.868Z,1025.73
2022-12-18T11:07:19.827Z,1025.72
2022-12-18T11:08:19.820Z,1025.77
2022-12-18T11:09:19.772Z,1025.74
2022-12-18T11:10:19.819Z,1025.70
2022-12-18T11:11:28.524Z,1025.69
2022-12-18T11:12:19.809Z,1025.65
2022-12-18T11:13:19.833Z,1025.60
2022-12-18T11:14:19.748Z,1025.61
2022-12-18T11:15:19.718Z,1025.61
2022-12-18T11:16:19.892Z,1025.60
2022-12-18T11:18:19.540Z,1025.54
2022-12-18T11:19:19.561Z,1025.53
2022-12-18T11:20:19.567Z,1025.46
2022-12-18T11:21:19.531Z,1025.47
2022-12-18T11:22:19.518Z,1025.40
2022-12-18T11:23:19.638Z,1025.38
2022-12-18T11:24:19.461Z,1025.37
2022-12-18T11:25:35.891Z,1025.34
2022-12-18T11:26:20.443Z,1025.33
2022-12-18T11:27:23.527Z,1025.27
2022-12-18T11:28:51.632Z,1025.21
2022-12-18T11:29:19.634Z,1025.18
2022-12-18T11:30:22.099Z,1025.18
2022-12-18T11:31:20.411Z,1025.20
2022-12-18T11:32:20.005Z,1025.16
2022-12-18T11:33:19.537Z,1025.16
2022-12-18T11:34:29.034Z,1025.20
2022-12-18T11:35:20.391Z,1025.16
2022-12-18T11:36:20.245Z,1025.16
2022-12-18T11:37:20.175Z,1025.20
2022-12-18T11:38:19.365Z,1025.19
2022-12-18T11:39:19.664Z,1025.15
2022-12-18T11:40:23.527Z,1025.16
2022-12-18T11:41:19.592Z,1025.15
2022-12-18T11:42:19.323Z,1025.18
2022-12-18T11:43:23.738Z,1025.17
2022-12-18T11:44:19.596Z,1025.17
2022-12-18T11:45:20.076Z,1025.13
2022-12-18T11:46:19.936Z,1025.10
2022-12-18T11:47:19.226Z,1025.14
2022-12-18T11:48:19.219Z,1025.13
2022-12-18T11:49:20.006Z,1025.13
2022-12-18T11:50:19.555Z,1025.12
2022-12-18T11:51:19.201Z,1025.13
2022-12-18T11:52:19.197Z,1025.10
2022-12-18T11:53:19.092Z,1025.07
2022-12-18T11:54:19.110Z,1025.06
2022-12-18T11:55:19.097Z,1025.01
2022-12-18T11:56:19.081Z,1025.01
2022-12-18T11:57:19.070Z,1024.99
2022-12-18T11:58:19.110Z,1025.01
2022-12-18T11:59:19.023Z,1024.98
2022-12-18T12:00:19.057Z,1024.98
2022-12-18T12:01:19.018Z,1024.97
2022-12-18T12:02:19.103Z,1024.99
2022-12-18T12:03:19.042Z,1024.90
2022-12-18T12:04:19.053Z,1024.94
2022-12-18T12:05:18.960Z,1024.91
2022-12-18T12:06:18.952Z,1024.92